sensor_id;sensor_type;location;lat;lon;timestamp;P1;durP1;ratioP1;P2;durP2;ratioP2
20114;SDS011;10218;42.874;25.320;2022-08-01T00:02:13;11.00;;;6.70;;
20114;SDS011;10218;42.874;25.320;2022-08-01T00:04:41;9.43;;;6.67;;
20114;SDS011;10218;42.874;25.320;2022-08-01T00:07:08;10.10;;;7.40;;
20114;SDS011;10218;42.874;25.320;2022-08-01T00:09:35;9.03;;;7.20;;
20114;SDS011;10218;42.874;25.320;2022-08-01T00:12:02;7.33;;;6.33;;
20114;SDS011;10218;42.874;25.320;2022-08-01T00:14:32;8.93;;;6.20;;
20114;SDS011;10218;42.874;25.320;2022-08-01T00:17:00;7.87;;;6.63;;
20114;SDS011;10218;42.874;25.320;2022-08-01T00:19:31;8.70;;;6.10;;
20114;SDS011;10218;42.874;25.320;2022-08-01T00:21:59;8.00;;;6.37;;
20114;SDS011;10218;42.874;25.320;2022-08-01T00:24:27;12.23;;;5.93;;
20114;SDS011;10218;42.874;25.320;2022-08-01T00:26:55;7.80;;;5.90;;
20114;SDS011;10218;42.874;25.320;2022-08-01T00:29:22;8.47;;;5.30;;
20114;SDS011;10218;42.874;25.320;2022-08-01T00:31:50;7.30;;;5.30;;
20114;SDS011;10218;42.874;25.320;2022-08-01T00:34:17;7.30;;;5.17;;
20114;SDS011;10218;42.874;25.320;2022-08-01T00:36:44;7.67;;;5.90;;
20114;SDS011;10218;42.874;25.320;2022-08-01T00:39:13;6.53;;;5.83;;
20114;SDS011;10218;42.874;25.320;2022-08-01T00:41:42;7.90;;;6.10;;
20114;SDS011;10218;42.874;25.320;2022-08-01T00:44:09;8.93;;;6.20;;
20114;SDS011;10218;42.874;25.320;2022-08-01T00:46:38;8.93;;;5.70;;
20114;SDS011;10218;42.874;25.320;2022-08-01T00:49:06;8.70;;;5.53;;
20114;SDS011;10218;42.874;25.320;2022-08-01T00:51:35;6.90;;;5.40;;
20114;SDS011;10218;42.874;25.320;2022-08-01T00:54:02;7.50;;;5.17;;
20114;SDS011;10218;42.874;25.320;2022-08-01T00:56:30;6.50;;;5.37;;
20114;SDS011;10218;42.874;25.320;2022-08-01T00:58:58;5.50;;;4.10;;
20114;SDS011;10218;42.874;25.320;2022-08-01T01:01:26;6.13;;;5.00;;
20114;SDS011;10218;42.874;25.320;2022-08-01T01:03:53;9.00;;;4.83;;
20114;SDS011;10218;42.874;25.320;2022-08-01T01:09:14;4.80;;;3.90;;
20114;SDS011;10218;42.874;25.320;2022-08-01T01:12:33;8.90;;;4.87;;
20114;SDS011;10218;42.874;25.320;2022-08-01T01:17:41;6.10;;;4.67;;
20114;SDS011;10218;42.874;25.320;2022-08-01T01:20:38;5.03;;;4.20;;
20114;SDS011;10218;42.874;25.320;2022-08-01T01:23:12;4.40;;;3.60;;
20114;SDS011;10218;42.874;25.320;2022-08-01T01:32:04;4.93;;;3.80;;
20114;SDS011;10218;42.874;25.320;2022-08-01T01:34:45;10.87;;;3.80;;
20114;SDS011;10218;42.874;25.320;2022-08-01T01:37:18;4.60;;;3.40;;
20114;SDS011;10218;42.874;25.320;2022-08-01T01:39:49;6.90;;;3.40;;
20114;SDS011;10218;42.874;25.320;2022-08-01T01:42:18;3.63;;;3.30;;
20114;SDS011;10218;42.874;25.320;2022-08-01T01:44:48;4.50;;;3.17;;
20114;SDS011;10218;42.874;25.320;2022-08-01T01:47:18;3.23;;;2.60;;
20114;SDS011;10218;42.874;25.320;2022-08-01T01:49:46;4.10;;;3.20;;
20114;SDS011;10218;42.874;25.320;2022-08-01T01:52:16;4.60;;;2.93;;
20114;SDS011;10218;42.874;25.320;2022-08-01T01:54:47;11.53;;;5.57;;
20114;SDS011;10218;42.874;25.320;2022-08-01T01:57:17;3.87;;;2.87;;
20114;SDS011;10218;42.874;25.320;2022-08-01T01:59:46;4.07;;;2.87;;
20114;SDS011;10218;42.874;25.320;2022-08-01T02:02:16;3.20;;;2.90;;
20114;SDS011;10218;42.874;25.320;2022-08-01T02:04:46;8.97;;;3.00;;
20114;SDS011;10218;42.874;25.320;2022-08-01T02:07:17;3.60;;;2.70;;
20114;SDS011;10218;42.874;25.320;2022-08-01T02:09:47;3.90;;;2.87;;
20114;SDS011;10218;42.874;25.320;2022-08-01T02:12:16;3.13;;;2.50;;
20114;SDS011;10218;42.874;25.320;2022-08-01T02:14:45;2.93;;;2.40;;
20114;SDS011;10218;42.874;25.320;2022-08-01T02:17:16;4.50;;;2.60;;
20114;SDS011;10218;42.874;25.320;2022-08-01T02:19:45;4.60;;;3.20;;
20114;SDS011;10218;42.874;25.320;2022-08-01T02:22:21;5.73;;;3.37;;
20114;SDS011;10218;42.874;25.320;2022-08-01T02:24:56;3.90;;;3.03;;
20114;SDS011;10218;42.874;25.320;2022-08-01T02:27:43;8.87;;;4.00;;
20114;SDS011;10218;42.874;25.320;2022-08-01T02:30:17;4.83;;;3.10;;
20114;SDS011;10218;42.874;25.320;2022-08-01T02:32:46;5.63;;;3.17;;
20114;SDS011;10218;42.874;25.320;2022-08-01T02:35:23;5.67;;;3.73;;
20114;SDS011;10218;42.874;25.320;2022-08-01T02:37:55;4.37;;;3.73;;
20114;SDS011;10218;42.874;25.320;2022-08-01T02:40:28;5.10;;;3.70;;
20114;SDS011;10218;42.874;25.320;2022-08-01T02:43:00;5.87;;;3.40;;
20114;SDS011;10218;42.874;25.320;2022-08-01T02:45:30;7.77;;;3.57;;
20114;SDS011;10218;42.874;25.320;2022-08-01T02:48:03;5.07;;;3.30;;
20114;SDS011;10218;42.874;25.320;2022-08-01T02:50:36;3.40;;;3.10;;
20114;SDS011;10218;42.874;25.320;2022-08-01T02:53:05;4.57;;;3.27;;
20114;SDS011;10218;42.874;25.320;2022-08-01T02:55:36;5.80;;;3.43;;
20114;SDS011;10218;42.874;25.320;2022-08-01T02:58:06;6.43;;;3.30;;
20114;SDS011;10218;42.874;25.320;2022-08-01T03:00:36;4.80;;;3.33;;
20114;SDS011;10218;42.874;25.320;2022-08-01T03:03:06;8.73;;;3.80;;
20114;SDS011;10218;42.874;25.320;2022-08-01T03:05:34;4.90;;;3.47;;
20114;SDS011;10218;42.874;25.320;2022-08-01T03:08:03;5.87;;;3.90;;
20114;SDS011;10218;42.874;25.320;2022-08-01T03:10:32;5.10;;;3.60;;
20114;SDS011;10218;42.874;25.320;2022-08-01T03:13:03;6.07;;;3.60;;
20114;SDS011;10218;42.874;25.320;2022-08-01T03:15:34;5.20;;;3.60;;
20114;SDS011;10218;42.874;25.320;2022-08-01T03:18:06;4.47;;;3.77;;
20114;SDS011;10218;42.874;25.320;2022-08-01T03:20:36;6.53;;;3.43;;
20114;SDS011;10218;42.874;25.320;2022-08-01T03:23:07;4.53;;;3.63;;
20114;SDS011;10218;42.874;25.320;2022-08-01T03:25:38;4.07;;;3.33;;
20114;SDS011;10218;42.874;25.320;2022-08-01T03:28:06;4.63;;;4.10;;
20114;SDS011;10218;42.874;25.320;2022-08-01T03:30:36;4.77;;;3.93;;
20114;SDS011;10218;42.874;25.320;2022-08-01T03:33:08;5.43;;;3.80;;
20114;SDS011;10218;42.874;25.320;2022-08-01T03:35:37;7.67;;;4.53;;
20114;SDS011;10218;42.874;25.320;2022-08-01T03:38:10;6.10;;;3.93;;
20114;SDS011;10218;42.874;25.320;2022-08-01T03:40:44;5.87;;;4.30;;
20114;SDS011;10218;42.874;25.320;2022-08-01T03:43:29;6.07;;;4.50;;
20114;SDS011;10218;42.874;25.320;2022-08-01T03:46:07;8.53;;;4.77;;
20114;SDS011;10218;42.874;25.320;2022-08-01T03:48:40;7.07;;;3.97;;
20114;SDS011;10218;42.874;25.320;2022-08-01T03:51:13;7.87;;;3.80;;
20114;SDS011;10218;42.874;25.320;2022-08-01T03:53:45;7.10;;;4.07;;
20114;SDS011;10218;42.874;25.320;2022-08-01T03:56:16;4.60;;;3.60;;
20114;SDS011;10218;42.874;25.320;2022-08-01T03:58:46;6.47;;;4.10;;
20114;SDS011;10218;42.874;25.320;2022-08-01T04:01:17;6.03;;;3.77;;
20114;SDS011;10218;42.874;25.320;2022-08-01T04:03:45;4.43;;;3.60;;
20114;SDS011;10218;42.874;25.320;2022-08-01T04:06:12;5.30;;;4.20;;
20114;SDS011;10218;42.874;25.320;2022-08-01T04:08:40;7.77;;;4.67;;
20114;SDS011;10218;42.874;25.320;2022-08-01T04:11:09;9.13;;;4.40;;
20114;SDS011;10218;42.874;25.320;2022-08-01T04:13:36;6.87;;;4.07;;
20114;SDS011;10218;42.874;25.320;2022-08-01T04:16:04;4.87;;;3.70;;
20114;SDS011;10218;42.874;25.320;2022-08-01T04:18:32;4.60;;;3.57;;
20114;SDS011;10218;42.874;25.320;2022-08-01T04:20:59;7.93;;;4.10;;
20114;SDS011;10218;42.874;25.320;2022-08-01T04:23:26;7.17;;;3.97;;
20114;SDS011;10218;42.874;25.320;2022-08-01T04:25:59;5.60;;;4.17;;
20114;SDS011;10218;42.874;25.320;2022-08-01T04:28:28;5.93;;;4.30;;
20114;SDS011;10218;42.874;25.320;2022-08-01T04:30:59;8.40;;;4.60;;
20114;SDS011;10218;42.874;25.320;2022-08-01T04:33:29;6.83;;;4.40;;
20114;SDS011;10218;42.874;25.320;2022-08-01T04:35:58;6.23;;;5.07;;
20114;SDS011;10218;42.874;25.320;2022-08-01T04:38:30;5.47;;;4.77;;
20114;SDS011;10218;42.874;25.320;2022-08-01T04:41:00;5.50;;;4.00;;
20114;SDS011;10218;42.874;25.320;2022-08-01T04:43:29;5.47;;;3.70;;
20114;SDS011;10218;42.874;25.320;2022-08-01T04:45:56;5.63;;;4.07;;
20114;SDS011;10218;42.874;25.320;2022-08-01T04:48:25;5.30;;;4.10;;
20114;SDS011;10218;42.874;25.320;2022-08-01T04:50:53;5.07;;;3.70;;
20114;SDS011;10218;42.874;25.320;2022-08-01T04:53:22;3.57;;;3.07;;
20114;SDS011;10218;42.874;25.320;2022-08-01T04:55:49;6.27;;;3.40;;
20114;SDS011;10218;42.874;25.320;2022-08-01T04:58:17;12.40;;;3.73;;
20114;SDS011;10218;42.874;25.320;2022-08-01T05:00:48;2.90;;;2.60;;
20114;SDS011;10218;42.874;25.320;2022-08-01T05:03:15;4.23;;;3.00;;
20114;SDS011;10218;42.874;25.320;2022-08-01T05:05:43;4.40;;;2.90;;
20114;SDS011;10218;42.874;25.320;2022-08-01T05:08:11;5.90;;;2.43;;
20114;SDS011;10218;42.874;25.320;2022-08-01T05:10:41;3.87;;;2.80;;
20114;SDS011;10218;42.874;25.320;2022-08-01T05:13:17;3.13;;;2.77;;
20114;SDS011;10218;42.874;25.320;2022-08-01T05:15:44;3.87;;;2.73;;
20114;SDS011;10218;42.874;25.320;2022-08-01T05:18:12;4.03;;;3.13;;
20114;SDS011;10218;42.874;25.320;2022-08-01T05:20:42;4.40;;;2.70;;
20114;SDS011;10218;42.874;25.320;2022-08-01T05:23:09;3.67;;;2.63;;
20114;SDS011;10218;42.874;25.320;2022-08-01T05:25:36;4.63;;;3.00;;
20114;SDS011;10218;42.874;25.320;2022-08-01T05:28:14;5.50;;;2.57;;
20114;SDS011;10218;42.874;25.320;2022-08-01T05:30:42;4.97;;;2.60;;
20114;SDS011;10218;42.874;25.320;2022-08-01T05:33:10;4.00;;;2.70;;
20114;SDS011;10218;42.874;25.320;2022-08-01T05:35:37;3.47;;;2.80;;
20114;SDS011;10218;42.874;25.320;2022-08-01T05:38:04;4.63;;;2.83;;
20114;SDS011;10218;42.874;25.320;2022-08-01T05:40:31;3.47;;;2.00;;
20114;SDS011;10218;42.874;25.320;2022-08-01T05:42:59;5.33;;;2.37;;
20114;SDS011;10218;42.874;25.320;2022-08-01T05:45:26;4.57;;;2.40;;
20114;SDS011;10218;42.874;25.320;2022-08-01T05:47:54;3.47;;;2.27;;
20114;SDS011;10218;42.874;25.320;2022-08-01T05:50:21;2.50;;;2.20;;
20114;SDS011;10218;42.874;25.320;2022-08-01T05:52:48;3.53;;;2.40;;
20114;SDS011;10218;42.874;25.320;2022-08-01T05:55:16;2.60;;;2.20;;
20114;SDS011;10218;42.874;25.320;2022-08-01T05:57:43;3.93;;;2.30;;
20114;SDS011;10218;42.874;25.320;2022-08-01T06:00:10;5.10;;;2.10;;
20114;SDS011;10218;42.874;25.320;2022-08-01T06:02:40;3.17;;;2.37;;
20114;SDS011;10218;42.874;25.320;2022-08-01T06:05:10;3.23;;;2.37;;
20114;SDS011;10218;42.874;25.320;2022-08-01T06:07:38;3.63;;;2.10;;
20114;SDS011;10218;42.874;25.320;2022-08-01T06:10:07;6.43;;;2.23;;
20114;SDS011;10218;42.874;25.320;2022-08-01T06:12:35;2.70;;;2.30;;
20114;SDS011;10218;42.874;25.320;2022-08-01T06:15:03;7.50;;;2.57;;
20114;SDS011;10218;42.874;25.320;2022-08-01T06:17:32;2.37;;;2.10;;
20114;SDS011;10218;42.874;25.320;2022-08-01T06:20:00;6.23;;;2.20;;
20114;SDS011;10218;42.874;25.320;2022-08-01T06:22:27;4.03;;;2.20;;
20114;SDS011;10218;42.874;25.320;2022-08-01T06:24:55;3.27;;;2.13;;
20114;SDS011;10218;42.874;25.320;2022-08-01T06:27:21;3.97;;;2.03;;
20114;SDS011;10218;42.874;25.320;2022-08-01T06:29:51;3.20;;;2.50;;
20114;SDS011;10218;42.874;25.320;2022-08-01T06:32:22;2.40;;;1.90;;
20114;SDS011;10218;42.874;25.320;2022-08-01T06:34:49;5.80;;;2.70;;
20114;SDS011;10218;42.874;25.320;2022-08-01T06:37:17;6.63;;;2.70;;
20114;SDS011;10218;42.874;25.320;2022-08-01T06:39:44;5.93;;;2.50;;
20114;SDS011;10218;42.874;25.320;2022-08-01T06:42:11;7.30;;;2.40;;
20114;SDS011;10218;42.874;25.320;2022-08-01T06:44:38;4.13;;;2.40;;
20114;SDS011;10218;42.874;25.320;2022-08-01T06:47:06;4.00;;;2.40;;
20114;SDS011;10218;42.874;25.320;2022-08-01T06:49:34;4.50;;;2.30;;
20114;SDS011;10218;42.874;25.320;2022-08-01T06:52:06;3.17;;;2.30;;
20114;SDS011;10218;42.874;25.320;2022-08-01T06:54:40;3.40;;;2.63;;
20114;SDS011;10218;42.874;25.320;2022-08-01T06:57:07;3.43;;;2.30;;
20114;SDS011;10218;42.874;25.320;2022-08-01T06:59:35;4.67;;;2.33;;
20114;SDS011;10218;42.874;25.320;2022-08-01T07:02:07;4.10;;;2.40;;
20114;SDS011;10218;42.874;25.320;2022-08-01T07:04:34;4.20;;;2.33;;
20114;SDS011;10218;42.874;25.320;2022-08-01T07:07:02;8.00;;;3.03;;
20114;SDS011;10218;42.874;25.320;2022-08-01T07:09:34;3.13;;;2.30;;
20114;SDS011;10218;42.874;25.320;2022-08-01T07:12:04;4.87;;;3.07;;
20114;SDS011;10218;42.874;25.320;2022-08-01T07:14:35;7.30;;;2.23;;
20114;SDS011;10218;42.874;25.320;2022-08-01T07:17:36;2.90;;;2.37;;
20114;SDS011;10218;42.874;25.320;2022-08-01T07:20:16;5.73;;;2.47;;
20114;SDS011;10218;42.874;25.320;2022-08-01T07:22:43;4.37;;;2.50;;
20114;SDS011;10218;42.874;25.320;2022-08-01T07:25:10;3.73;;;2.40;;
20114;SDS011;10218;42.874;25.320;2022-08-01T07:27:38;2.93;;;2.30;;
20114;SDS011;10218;42.874;25.320;2022-08-01T07:30:05;5.10;;;2.40;;
20114;SDS011;10218;42.874;25.320;2022-08-01T07:32:33;2.77;;;2.50;;
20114;SDS011;10218;42.874;25.320;2022-08-01T07:35:03;8.37;;;2.40;;
20114;SDS011;10218;42.874;25.320;2022-08-01T07:37:31;5.70;;;2.20;;
20114;SDS011;10218;42.874;25.320;2022-08-01T07:39:58;3.00;;;2.50;;
20114;SDS011;10218;42.874;25.320;2022-08-01T07:42:28;7.00;;;2.30;;
20114;SDS011;10218;42.874;25.320;2022-08-01T07:44:56;2.90;;;2.27;;
20114;SDS011;10218;42.874;25.320;2022-08-01T07:47:24;3.80;;;2.73;;
20114;SDS011;10218;42.874;25.320;2022-08-01T07:50:00;3.70;;;2.70;;
20114;SDS011;10218;42.874;25.320;2022-08-01T07:52:29;5.33;;;2.47;;
20114;SDS011;10218;42.874;25.320;2022-08-01T07:55:00;6.00;;;2.50;;
20114;SDS011;10218;42.874;25.320;2022-08-01T07:57:27;3.80;;;2.90;;
20114;SDS011;10218;42.874;25.320;2022-08-01T07:59:56;4.90;;;2.40;;
20114;SDS011;10218;42.874;25.320;2022-08-01T08:02:29;4.67;;;2.27;;
20114;SDS011;10218;42.874;25.320;2022-08-01T08:04:56;5.57;;;2.77;;
20114;SDS011;10218;42.874;25.320;2022-08-01T08:07:37;2.57;;;2.30;;
20114;SDS011;10218;42.874;25.320;2022-08-01T08:10:06;3.50;;;2.10;;
20114;SDS011;10218;42.874;25.320;2022-08-01T08:12:34;4.17;;;1.93;;
20114;SDS011;10218;42.874;25.320;2022-08-01T08:15:01;3.10;;;2.00;;
20114;SDS011;10218;42.874;25.320;2022-08-01T08:17:32;3.37;;;2.03;;
20114;SDS011;10218;42.874;25.320;2022-08-01T08:20:00;2.60;;;2.30;;
20114;SDS011;10218;42.874;25.320;2022-08-01T08:22:28;4.37;;;1.70;;
20114;SDS011;10218;42.874;25.320;2022-08-01T08:24:56;2.27;;;1.60;;
20114;SDS011;10218;42.874;25.320;2022-08-01T08:27:23;4.00;;;1.80;;
20114;SDS011;10218;42.874;25.320;2022-08-01T08:29:50;3.60;;;1.93;;
20114;SDS011;10218;42.874;25.320;2022-08-01T08:32:17;5.97;;;1.97;;
20114;SDS011;10218;42.874;25.320;2022-08-01T08:34:44;2.27;;;1.80;;
20114;SDS011;10218;42.874;25.320;2022-08-01T08:37:12;4.30;;;1.93;;
20114;SDS011;10218;42.874;25.320;2022-08-01T08:39:39;1.83;;;1.70;;
20114;SDS011;10218;42.874;25.320;2022-08-01T08:42:08;4.17;;;2.00;;
20114;SDS011;10218;42.874;25.320;2022-08-01T08:44:36;3.30;;;1.90;;
20114;SDS011;10218;42.874;25.320;2022-08-01T08:47:05;2.87;;;1.87;;
20114;SDS011;10218;42.874;25.320;2022-08-01T08:49:35;2.37;;;2.17;;
20114;SDS011;10218;42.874;25.320;2022-08-01T08:52:03;4.10;;;2.00;;
20114;SDS011;10218;42.874;25.320;2022-08-01T08:54:31;3.50;;;1.93;;
20114;SDS011;10218;42.874;25.320;2022-08-01T08:56:59;3.33;;;2.10;;
20114;SDS011;10218;42.874;25.320;2022-08-01T08:59:27;2.13;;;1.90;;
20114;SDS011;10218;42.874;25.320;2022-08-01T09:01:56;2.93;;;2.20;;
20114;SDS011;10218;42.874;25.320;2022-08-01T09:04:24;6.10;;;2.20;;
20114;SDS011;10218;42.874;25.320;2022-08-01T09:06:53;2.27;;;1.97;;
20114;SDS011;10218;42.874;25.320;2022-08-01T09:09:22;5.10;;;2.27;;
20114;SDS011;10218;42.874;25.320;2022-08-01T09:11:49;6.07;;;2.57;;
20114;SDS011;10218;42.874;25.320;2022-08-01T09:14:17;3.60;;;2.07;;
20114;SDS011;10218;42.874;25.320;2022-08-01T09:20:03;3.40;;;2.03;;
20114;SDS011;10218;42.874;25.320;2022-08-01T09:22:24;8.27;;;2.20;;
20114;SDS011;10218;42.874;25.320;2022-08-01T09:24:58;2.10;;;1.80;;
20114;SDS011;10218;42.874;25.320;2022-08-01T09:27:33;6.13;;;1.70;;
20114;SDS011;10218;42.874;25.320;2022-08-01T09:30:14;5.27;;;1.90;;
20114;SDS011;10218;42.874;25.320;2022-08-01T09:35:39;1.73;;;1.60;;
20114;SDS011;10218;42.874;25.320;2022-08-01T09:38:18;3.23;;;1.80;;
20114;SDS011;10218;42.874;25.320;2022-08-01T09:40:51;3.07;;;1.93;;
20114;SDS011;10218;42.874;25.320;2022-08-01T09:43:26;1.90;;;1.43;;
20114;SDS011;10218;42.874;25.320;2022-08-01T09:45:55;2.10;;;1.80;;
20114;SDS011;10218;42.874;25.320;2022-08-01T09:48:23;3.37;;;1.83;;
20114;SDS011;10218;42.874;25.320;2022-08-01T09:50:51;2.63;;;1.97;;
20114;SDS011;10218;42.874;25.320;2022-08-01T09:53:19;4.37;;;2.00;;
20114;SDS011;10218;42.874;25.320;2022-08-01T09:55:46;5.20;;;2.07;;
20114;SDS011;10218;42.874;25.320;2022-08-01T09:58:13;3.00;;;1.90;;
20114;SDS011;10218;42.874;25.320;2022-08-01T10:00:41;2.73;;;1.60;;
20114;SDS011;10218;42.874;25.320;2022-08-01T10:05:51;2.40;;;1.90;;
20114;SDS011;10218;42.874;25.320;2022-08-01T10:08:20;3.53;;;2.03;;
20114;SDS011;10218;42.874;25.320;2022-08-01T10:11:04;4.57;;;2.07;;
20114;SDS011;10218;42.874;25.320;2022-08-01T10:13:36;3.00;;;1.60;;
20114;SDS011;10218;42.874;25.320;2022-08-01T10:16:04;2.10;;;1.90;;
20114;SDS011;10218;42.874;25.320;2022-08-01T10:18:34;1.90;;;1.70;;
20114;SDS011;10218;42.874;25.320;2022-08-01T10:21:02;3.00;;;1.90;;
20114;SDS011;10218;42.874;25.320;2022-08-01T10:23:33;2.17;;;1.77;;
20114;SDS011;10218;42.874;25.320;2022-08-01T10:26:02;1.70;;;1.27;;
20114;SDS011;10218;42.874;25.320;2022-08-01T10:28:31;4.97;;;1.57;;
20114;SDS011;10218;42.874;25.320;2022-08-01T10:31:01;4.67;;;1.90;;
20114;SDS011;10218;42.874;25.320;2022-08-01T10:33:29;1.63;;;1.53;;
20114;SDS011;10218;42.874;25.320;2022-08-01T10:35:57;1.97;;;1.80;;
20114;SDS011;10218;42.874;25.320;2022-08-01T10:38:25;1.90;;;1.70;;
20114;SDS011;10218;42.874;25.320;2022-08-01T10:40:54;1.53;;;1.43;;
20114;SDS011;10218;42.874;25.320;2022-08-01T10:43:25;2.23;;;2.00;;
20114;SDS011;10218;42.874;25.320;2022-08-01T10:45:55;2.77;;;1.90;;
20114;SDS011;10218;42.874;25.320;2022-08-01T10:51:28;2.57;;;1.60;;
20114;SDS011;10218;42.874;25.320;2022-08-01T10:53:56;5.60;;;2.50;;
20114;SDS011;10218;42.874;25.320;2022-08-01T10:56:23;7.37;;;4.23;;
20114;SDS011;10218;42.874;25.320;2022-08-01T10:58:54;5.70;;;3.17;;
20114;SDS011;10218;42.874;25.320;2022-08-01T11:01:30;4.07;;;1.73;;
20114;SDS011;10218;42.874;25.320;2022-08-01T11:04:11;1.63;;;1.40;;
20114;SDS011;10218;42.874;25.320;2022-08-01T11:07:34;3.03;;;1.50;;
20114;SDS011;10218;42.874;25.320;2022-08-01T11:12:19;2.60;;;1.70;;
20114;SDS011;10218;42.874;25.320;2022-08-01T11:15:29;2.90;;;1.93;;
20114;SDS011;10218;42.874;25.320;2022-08-01T11:17:44;3.97;;;2.07;;
20114;SDS011;10218;42.874;25.320;2022-08-01T11:20:17;1.70;;;1.30;;
20114;SDS011;10218;42.874;25.320;2022-08-01T11:30:54;2.20;;;1.13;;
20114;SDS011;10218;42.874;25.320;2022-08-01T11:33:55;1.90;;;1.47;;
20114;SDS011;10218;42.874;25.320;2022-08-01T11:36:24;1.60;;;1.33;;
20114;SDS011;10218;42.874;25.320;2022-08-01T11:41:34;4.83;;;1.40;;
20114;SDS011;10218;42.874;25.320;2022-08-01T11:46:55;2.30;;;1.43;;
20114;SDS011;10218;42.874;25.320;2022-08-01T11:54:46;3.53;;;2.00;;
20114;SDS011;10218;42.874;25.320;2022-08-01T11:57:24;1.67;;;1.40;;
20114;SDS011;10218;42.874;25.320;2022-08-01T12:00:06;2.95;;;1.67;;
20114;SDS011;10218;42.874;25.320;2022-08-01T12:02:37;4.05;;;1.58;;
20114;SDS011;10218;42.874;25.320;2022-08-01T12:07:32;15.73;;;2.50;;
20114;SDS011;10218;42.874;25.320;2022-08-01T12:10:12;11.77;;;2.28;;
20114;SDS011;10218;42.874;25.320;2022-08-01T12:15:10;3.35;;;1.25;;
20114;SDS011;10218;42.874;25.320;2022-08-01T12:17:43;2.58;;;1.50;;
20114;SDS011;10218;42.874;25.320;2022-08-01T12:20:14;1.40;;;1.25;;
20114;SDS011;10218;42.874;25.320;2022-08-01T12:22:42;1.92;;;1.20;;
20114;SDS011;10218;42.874;25.320;2022-08-01T12:25:14;2.03;;;1.30;;
20114;SDS011;10218;42.874;25.320;2022-08-01T12:27:44;1.33;;;1.20;;
20114;SDS011;10218;42.874;25.320;2022-08-01T12:30:16;3.85;;;1.25;;
20114;SDS011;10218;42.874;25.320;2022-08-01T12:32:45;1.92;;;1.30;;
20114;SDS011;10218;42.874;25.320;2022-08-01T12:35:21;2.47;;;1.30;;
20114;SDS011;10218;42.874;25.320;2022-08-01T12:37:56;2.00;;;1.20;;
20114;SDS011;10218;42.874;25.320;2022-08-01T12:40:29;1.35;;;1.17;;
20114;SDS011;10218;42.874;25.320;2022-08-01T12:43:02;1.62;;;1.20;;
20114;SDS011;10218;42.874;25.320;2022-08-01T12:45:32;4.90;;;1.10;;
20114;SDS011;10218;42.874;25.320;2022-08-01T12:48:00;1.85;;;1.15;;
20114;SDS011;10218;42.874;25.320;2022-08-01T12:50:29;1.50;;;1.40;;
20114;SDS011;10218;42.874;25.320;2022-08-01T12:52:57;1.60;;;1.40;;
20114;SDS011;10218;42.874;25.320;2022-08-01T12:55:25;2.45;;;1.25;;
20114;SDS011;10218;42.874;25.320;2022-08-01T12:58:04;2.08;;;1.10;;
20114;SDS011;10218;42.874;25.320;2022-08-01T13:00:35;2.00;;;1.30;;
20114;SDS011;10218;42.874;25.320;2022-08-01T13:03:07;1.58;;;1.20;;
20114;SDS011;10218;42.874;25.320;2022-08-01T13:08:10;3.77;;;1.20;;
20114;SDS011;10218;42.874;25.320;2022-08-01T13:10:40;1.98;;;1.30;;
20114;SDS011;10218;42.874;25.320;2022-08-01T13:13:08;2.53;;;1.45;;
20114;SDS011;10218;42.874;25.320;2022-08-01T13:15:36;2.83;;;1.23;;
20114;SDS011;10218;42.874;25.320;2022-08-01T13:18:22;2.20;;;1.30;;
20114;SDS011;10218;42.874;25.320;2022-08-01T13:23:37;4.60;;;1.00;;
20114;SDS011;10218;42.874;25.320;2022-08-01T13:26:05;2.03;;;1.30;;
20114;SDS011;10218;42.874;25.320;2022-08-01T13:28:33;1.20;;;1.10;;
20114;SDS011;10218;42.874;25.320;2022-08-01T13:31:04;2.03;;;1.10;;
20114;SDS011;10218;42.874;25.320;2022-08-01T13:33:46;1.55;;;1.17;;
20114;SDS011;10218;42.874;25.320;2022-08-01T13:36:14;1.50;;;1.27;;
20114;SDS011;10218;42.874;25.320;2022-08-01T13:38:41;1.52;;;1.08;;
20114;SDS011;10218;42.874;25.320;2022-08-01T13:41:27;2.20;;;1.70;;
20114;SDS011;10218;42.874;25.320;2022-08-01T13:43:54;2.50;;;1.15;;
20114;SDS011;10218;42.874;25.320;2022-08-01T13:46:21;2.72;;;1.23;;
20114;SDS011;10218;42.874;25.320;2022-08-01T13:48:49;1.62;;;1.20;;
20114;SDS011;10218;42.874;25.320;2022-08-01T13:51:16;1.50;;;1.10;;
20114;SDS011;10218;42.874;25.320;2022-08-01T13:53:47;4.53;;;1.15;;
20114;SDS011;10218;42.874;25.320;2022-08-01T13:56:14;1.60;;;1.23;;
20114;SDS011;10218;42.874;25.320;2022-08-01T13:58:44;2.33;;;0.98;;
20114;SDS011;10218;42.874;25.320;2022-08-01T14:01:11;1.52;;;1.23;;
20114;SDS011;10218;42.874;25.320;2022-08-01T14:03:38;1.42;;;1.20;;
20114;SDS011;10218;42.874;25.320;2022-08-01T14:06:05;2.55;;;1.40;;
20114;SDS011;10218;42.874;25.320;2022-08-01T14:08:33;2.78;;;1.35;;
20114;SDS011;10218;42.874;25.320;2022-08-01T14:11:00;2.33;;;1.35;;
20114;SDS011;10218;42.874;25.320;2022-08-01T14:13:28;3.05;;;1.60;;
20114;SDS011;10218;42.874;25.320;2022-08-01T14:15:59;2.05;;;1.37;;
20114;SDS011;10218;42.874;25.320;2022-08-01T14:18:26;3.37;;;1.20;;
20114;SDS011;10218;42.874;25.320;2022-08-01T14:20:53;3.27;;;1.40;;
20114;SDS011;10218;42.874;25.320;2022-08-01T14:23:20;1.50;;;1.30;;
20114;SDS011;10218;42.874;25.320;2022-08-01T14:25:48;1.30;;;1.20;;
20114;SDS011;10218;42.874;25.320;2022-08-01T14:28:15;1.98;;;1.35;;
20114;SDS011;10218;42.874;25.320;2022-08-01T14:30:42;1.60;;;1.45;;
20114;SDS011;10218;42.874;25.320;2022-08-01T14:33:10;1.50;;;1.40;;
20114;SDS011;10218;42.874;25.320;2022-08-01T14:35:39;4.22;;;1.35;;
20114;SDS011;10218;42.874;25.320;2022-08-01T14:38:06;1.67;;;1.45;;
20114;SDS011;10218;42.874;25.320;2022-08-01T14:40:35;5.03;;;1.20;;
20114;SDS011;10218;42.874;25.320;2022-08-01T14:43:02;2.22;;;1.70;;
20114;SDS011;10218;42.874;25.320;2022-08-01T14:45:29;3.57;;;1.53;;
20114;SDS011;10218;42.874;25.320;2022-08-01T14:47:56;1.37;;;1.25;;
20114;SDS011;10218;42.874;25.320;2022-08-01T14:50:23;3.07;;;1.23;;
20114;SDS011;10218;42.874;25.320;2022-08-01T14:52:53;2.07;;;1.30;;
20114;SDS011;10218;42.874;25.320;2022-08-01T14:55:20;1.90;;;1.20;;
20114;SDS011;10218;42.874;25.320;2022-08-01T14:57:51;2.13;;;1.27;;
20114;SDS011;10218;42.874;25.320;2022-08-01T15:00:18;3.20;;;1.30;;
20114;SDS011;10218;42.874;25.320;2022-08-01T15:02:46;1.60;;;1.50;;
20114;SDS011;10218;42.874;25.320;2022-08-01T15:05:14;2.33;;;1.10;;
20114;SDS011;10218;42.874;25.320;2022-08-01T15:07:41;1.60;;;1.20;;
20114;SDS011;10218;42.874;25.320;2022-08-01T15:10:08;1.43;;;1.30;;
20114;SDS011;10218;42.874;25.320;2022-08-01T15:12:36;2.37;;;2.17;;
20114;SDS011;10218;42.874;25.320;2022-08-01T15:15:15;1.53;;;1.40;;
20114;SDS011;10218;42.874;25.320;2022-08-01T15:17:42;1.70;;;1.43;;
20114;SDS011;10218;42.874;25.320;2022-08-01T15:20:09;3.00;;;1.40;;
20114;SDS011;10218;42.874;25.320;2022-08-01T15:22:36;1.70;;;1.40;;
20114;SDS011;10218;42.874;25.320;2022-08-01T15:25:04;2.10;;;1.30;;
20114;SDS011;10218;42.874;25.320;2022-08-01T15:27:31;1.73;;;1.30;;
20114;SDS011;10218;42.874;25.320;2022-08-01T15:29:59;1.23;;;1.13;;
20114;SDS011;10218;42.874;25.320;2022-08-01T15:32:26;2.83;;;1.20;;
20114;SDS011;10218;42.874;25.320;2022-08-01T15:34:53;2.40;;;1.23;;
20114;SDS011;10218;42.874;25.320;2022-08-01T15:37:21;1.40;;;1.20;;
20114;SDS011;10218;42.874;25.320;2022-08-01T15:39:50;1.40;;;1.30;;
20114;SDS011;10218;42.874;25.320;2022-08-01T15:42:17;3.97;;;1.30;;
20114;SDS011;10218;42.874;25.320;2022-08-01T15:44:45;1.30;;;1.20;;
20114;SDS011;10218;42.874;25.320;2022-08-01T15:47:12;3.13;;;1.07;;